sensor_id;sensor_type;location;lat;lon;timestamp;P1;durP1;ratioP1;P2;durP2;ratioP2
15925;SDS011;8062;53.882;10.642;2023-06-22T00:00:41;0.57;;;0.57;;
15925;SDS011;8062;53.882;10.642;2023-06-22T00:02:01;0.67;;;0.67;;
15925;SDS011;8062;53.882;10.642;2023-06-22T00:03:21;0.67;;;0.67;;
15925;SDS011;8062;53.882;10.642;2023-06-22T00:04:43;0.53;;;0.53;;
15925;SDS011;8062;53.882;10.642;2023-06-22T00:06:03;0.70;;;0.70;;
15925;SDS011;8062;53.882;10.642;2023-06-22T00:07:23;0.63;;;0.63;;
15925;SDS011;8062;53.882;10.642;2023-06-22T00:08:42;0.77;;;0.77;;
15925;SDS011;8062;53.882;10.642;2023-06-22T00:10:02;0.67;;;0.67;;
15925;SDS011;8062;53.882;10.642;2023-06-22T00:11:22;0.53;;;0.53;;
15925;SDS011;8062;53.882;10.642;2023-06-22T00:12:42;0.50;;;0.50;;
15925;SDS011;8062;53.882;10.642;2023-06-22T00:14:02;0.53;;;0.53;;
15925;SDS011;8062;53.882;10.642;2023-06-22T00:15:22;0.53;;;0.53;;
15925;SDS011;8062;53.882;10.642;2023-06-22T00:16:41;0.60;;;0.60;;
15925;SDS011;8062;53.882;10.642;2023-06-22T00:18:01;0.47;;;0.47;;
15925;SDS011;8062;53.882;10.642;2023-06-22T00:19:21;0.60;;;0.60;;
15925;SDS011;8062;53.882;10.642;2023-06-22T00:20:41;0.90;;;0.90;;
15925;SDS011;8062;53.882;10.642;2023-06-22T00:22:00;0.60;;;0.60;;
15925;SDS011;8062;53.882;10.642;2023-06-22T00:23:22;0.60;;;0.60;;
15925;SDS011;8062;53.882;10.642;2023-06-22T00:24:42;0.73;;;0.73;;
15925;SDS011;8062;53.882;10.642;2023-06-22T00:26:02;0.77;;;0.77;;
15925;SDS011;8062;53.882;10.642;2023-06-22T00:27:22;0.50;;;0.50;;
15925;SDS011;8062;53.882;10.642;2023-06-22T00:28:41;0.93;;;0.93;;
15925;SDS011;8062;53.882;10.642;2023-06-22T00:30:02;0.57;;;0.57;;
15925;SDS011;8062;53.882;10.642;2023-06-22T00:31:22;0.77;;;0.77;;
15925;SDS011;8062;53.882;10.642;2023-06-22T00:32:42;0.67;;;0.67;;
15925;SDS011;8062;53.882;10.642;2023-06-22T00:34:02;0.57;;;0.57;;
15925;SDS011;8062;53.882;10.642;2023-06-22T00:35:22;0.80;;;0.80;;
15925;SDS011;8062;53.882;10.642;2023-06-22T00:36:41;0.73;;;0.73;;
15925;SDS011;8062;53.882;10.642;2023-06-22T00:38:01;0.73;;;0.73;;
15925;SDS011;8062;53.882;10.642;2023-06-22T00:39:22;0.70;;;0.70;;
15925;SDS011;8062;53.882;10.642;2023-06-22T00:40:43;0.93;;;0.93;;
15925;SDS011;8062;53.882;10.642;2023-06-22T00:42:02;0.77;;;0.77;;
15925;SDS011;8062;53.882;10.642;2023-06-22T00:43:23;0.70;;;0.70;;
15925;SDS011;8062;53.882;10.642;2023-06-22T00:44:43;0.83;;;0.83;;
15925;SDS011;8062;53.882;10.642;2023-06-22T00:46:04;0.70;;;0.70;;
15925;SDS011;8062;53.882;10.642;2023-06-22T00:47:23;0.53;;;0.53;;
15925;SDS011;8062;53.882;10.642;2023-06-22T00:48:43;0.67;;;0.67;;
15925;SDS011;8062;53.882;10.642;2023-06-22T00:50:03;0.60;;;0.60;;
15925;SDS011;8062;53.882;10.642;2023-06-22T00:51:25;0.70;;;0.70;;
15925;SDS011;8062;53.882;10.642;2023-06-22T00:52:45;0.60;;;0.60;;
15925;SDS011;8062;53.882;10.642;2023-06-22T00:54:05;0.50;;;0.50;;
15925;SDS011;8062;53.882;10.642;2023-06-22T00:55:25;0.57;;;0.57;;
15925;SDS011;8062;53.882;10.642;2023-06-22T00:56:47;0.47;;;0.47;;
15925;SDS011;8062;53.882;10.642;2023-06-22T00:58:07;0.43;;;0.43;;
15925;SDS011;8062;53.882;10.642;2023-06-22T00:59:29;0.60;;;0.60;;
15925;SDS011;8062;53.882;10.642;2023-06-22T01:00:51;0.50;;;0.50;;
15925;SDS011;8062;53.882;10.642;2023-06-22T01:02:11;0.47;;;0.47;;
15925;SDS011;8062;53.882;10.642;2023-06-22T01:03:31;0.47;;;0.47;;
15925;SDS011;8062;53.882;10.642;2023-06-22T01:04:51;0.50;;;0.50;;
15925;SDS011;8062;53.882;10.642;2023-06-22T01:06:15;0.43;;;0.43;;
15925;SDS011;8062;53.882;10.642;2023-06-22T01:09:10;0.53;;;0.53;;
15925;SDS011;8062;53.882;10.642;2023-06-22T01:12:12;0.23;;;0.23;;
15925;SDS011;8062;53.882;10.642;2023-06-22T01:15:30;0.30;;;0.30;;
15925;SDS011;8062;53.882;10.642;2023-06-22T01:16:55;0.30;;;0.30;;
15925;SDS011;8062;53.882;10.642;2023-06-22T01:18:19;0.47;;;0.47;;
15925;SDS011;8062;53.882;10.642;2023-06-22T01:19:45;0.37;;;0.37;;
15925;SDS011;8062;53.882;10.642;2023-06-22T01:21:08;0.43;;;0.43;;
15925;SDS011;8062;53.882;10.642;2023-06-22T01:22:55;0.50;;;0.50;;
15925;SDS011;8062;53.882;10.642;2023-06-22T01:24:26;0.40;;;0.40;;
15925;SDS011;8062;53.882;10.642;2023-06-22T01:25:56;0.33;;;0.33;;
15925;SDS011;8062;53.882;10.642;2023-06-22T01:27:53;0.30;;;0.30;;
15925;SDS011;8062;53.882;10.642;2023-06-22T01:29:20;0.33;;;0.33;;
15925;SDS011;8062;53.882;10.642;2023-06-22T01:30:41;0.50;;;0.50;;
15925;SDS011;8062;53.882;10.642;2023-06-22T01:32:04;0.53;;;0.53;;
15925;SDS011;8062;53.882;10.642;2023-06-22T01:33:25;0.77;;;0.77;;
15925;SDS011;8062;53.882;10.642;2023-06-22T01:34:45;0.80;;;0.80;;
15925;SDS011;8062;53.882;10.642;2023-06-22T01:36:06;0.87;;;0.87;;
15925;SDS011;8062;53.882;10.642;2023-06-22T01:37:27;0.93;;;0.93;;
15925;SDS011;8062;53.882;10.642;2023-06-22T01:41:35;0.33;;;0.33;;
15925;SDS011;8062;53.882;10.642;2023-06-22T01:42:56;0.60;;;0.60;;
15925;SDS011;8062;53.882;10.642;2023-06-22T01:44:16;0.83;;;0.83;;
15925;SDS011;8062;53.882;10.642;2023-06-22T01:45:36;0.90;;;0.90;;
15925;SDS011;8062;53.882;10.642;2023-06-22T01:46:56;0.87;;;0.87;;
15925;SDS011;8062;53.882;10.642;2023-06-22T01:48:16;0.90;;;0.90;;
15925;SDS011;8062;53.882;10.642;2023-06-22T01:49:36;0.73;;;0.73;;
15925;SDS011;8062;53.882;10.642;2023-06-22T01:50:57;0.83;;;0.83;;
15925;SDS011;8062;53.882;10.642;2023-06-22T01:52:17;0.83;;;0.83;;
15925;SDS011;8062;53.882;10.642;2023-06-22T01:53:37;0.67;;;0.67;;
15925;SDS011;8062;53.882;10.642;2023-06-22T01:54:57;0.73;;;0.73;;
15925;SDS011;8062;53.882;10.642;2023-06-22T01:56:17;0.57;;;0.57;;
15925;SDS011;8062;53.882;10.642;2023-06-22T01:57:37;0.60;;;0.60;;
15925;SDS011;8062;53.882;10.642;2023-06-22T01:59:04;0.63;;;0.63;;
15925;SDS011;8062;53.882;10.642;2023-06-22T02:00:37;0.40;;;0.40;;
15925;SDS011;8062;53.882;10.642;2023-06-22T02:02:02;0.33;;;0.33;;
15925;SDS011;8062;53.882;10.642;2023-06-22T02:03:29;0.30;;;0.30;;
15925;SDS011;8062;53.882;10.642;2023-06-22T02:04:58;0.40;;;0.40;;
15925;SDS011;8062;53.882;10.642;2023-06-22T02:06:23;0.50;;;0.50;;
15925;SDS011;8062;53.882;10.642;2023-06-22T02:07:49;0.33;;;0.33;;
15925;SDS011;8062;53.882;10.642;2023-06-22T02:09:15;0.47;;;0.47;;
15925;SDS011;8062;53.882;10.642;2023-06-22T02:10:37;0.53;;;0.53;;
15925;SDS011;8062;53.882;10.642;2023-06-22T02:12:00;0.40;;;0.40;;
15925;SDS011;8062;53.882;10.642;2023-06-22T02:13:23;0.43;;;0.43;;
15925;SDS011;8062;53.882;10.642;2023-06-22T02:14:44;0.47;;;0.47;;
15925;SDS011;8062;53.882;10.642;2023-06-22T02:16:05;0.67;;;0.67;;
15925;SDS011;8062;53.882;10.642;2023-06-22T02:17:25;0.60;;;0.60;;
15925;SDS011;8062;53.882;10.642;2023-06-22T02:18:49;0.53;;;0.53;;
15925;SDS011;8062;53.882;10.642;2023-06-22T02:20:13;0.53;;;0.53;;
15925;SDS011;8062;53.882;10.642;2023-06-22T02:21:34;0.43;;;0.43;;
15925;SDS011;8062;53.882;10.642;2023-06-22T02:22:54;0.57;;;0.57;;
15925;SDS011;8062;53.882;10.642;2023-06-22T02:24:13;0.43;;;0.43;;
15925;SDS011;8062;53.882;10.642;2023-06-22T02:25:33;0.77;;;0.77;;
15925;SDS011;8062;53.882;10.642;2023-06-22T02:26:54;0.63;;;0.63;;
15925;SDS011;8062;53.882;10.642;2023-06-22T02:28:13;0.70;;;0.70;;
15925;SDS011;8062;53.882;10.642;2023-06-22T02:29:33;0.70;;;0.70;;
15925;SDS011;8062;53.882;10.642;2023-06-22T02:30:52;0.57;;;0.57;;
15925;SDS011;8062;53.882;10.642;2023-06-22T02:32:12;0.70;;;0.70;;
15925;SDS011;8062;53.882;10.642;2023-06-22T02:33:31;0.73;;;0.73;;
15925;SDS011;8062;53.882;10.642;2023-06-22T02:34:52;0.53;;;0.53;;
15925;SDS011;8062;53.882;10.642;2023-06-22T02:36:12;0.50;;;0.50;;
15925;SDS011;8062;53.882;10.642;2023-06-22T02:37:32;0.60;;;0.60;;
15925;SDS011;8062;53.882;10.642;2023-06-22T02:38:52;0.57;;;0.57;;
15925;SDS011;8062;53.882;10.642;2023-06-22T02:40:13;0.53;;;0.53;;
15925;SDS011;8062;53.882;10.642;2023-06-22T02:41:32;0.77;;;0.77;;
15925;SDS011;8062;53.882;10.642;2023-06-22T02:42:52;0.57;;;0.57;;
15925;SDS011;8062;53.882;10.642;2023-06-22T02:44:11;0.43;;;0.43;;
15925;SDS011;8062;53.882;10.642;2023-06-22T02:45:31;0.60;;;0.60;;
15925;SDS011;8062;53.882;10.642;2023-06-22T02:46:51;0.60;;;0.60;;
15925;SDS011;8062;53.882;10.642;2023-06-22T02:48:11;0.57;;;0.57;;
15925;SDS011;8062;53.882;10.642;2023-06-22T02:49:31;0.60;;;0.60;;
15925;SDS011;8062;53.882;10.642;2023-06-22T02:50:50;0.57;;;0.57;;
15925;SDS011;8062;53.882;10.642;2023-06-22T02:52:10;0.53;;;0.53;;
15925;SDS011;8062;53.882;10.642;2023-06-22T02:53:30;0.53;;;0.53;;
15925;SDS011;8062;53.882;10.642;2023-06-22T02:54:50;0.50;;;0.50;;
15925;SDS011;8062;53.882;10.642;2023-06-22T02:56:09;0.47;;;0.47;;
15925;SDS011;8062;53.882;10.642;2023-06-22T02:57:30;0.67;;;0.67;;
15925;SDS011;8062;53.882;10.642;2023-06-22T02:58:50;0.43;;;0.43;;
15925;SDS011;8062;53.882;10.642;2023-06-22T03:00:10;0.37;;;0.37;;
15925;SDS011;8062;53.882;10.642;2023-06-22T03:01:37;0.27;;;0.27;;
15925;SDS011;8062;53.882;10.642;2023-06-22T03:03:02;0.37;;;0.37;;
15925;SDS011;8062;53.882;10.642;2023-06-22T03:04:22;0.63;;;0.63;;
15925;SDS011;8062;53.882;10.642;2023-06-22T03:05:41;0.53;;;0.53;;
15925;SDS011;8062;53.882;10.642;2023-06-22T03:07:01;0.50;;;0.50;;
15925;SDS011;8062;53.882;10.642;2023-06-22T03:08:22;0.43;;;0.43;;
15925;SDS011;8062;53.882;10.642;2023-06-22T03:09:42;0.67;;;0.67;;
15925;SDS011;8062;53.882;10.642;2023-06-22T03:11:02;0.40;;;0.40;;
15925;SDS011;8062;53.882;10.642;2023-06-22T03:12:21;0.50;;;0.50;;
15925;SDS011;8062;53.882;10.642;2023-06-22T03:13:45;0.43;;;0.43;;
15925;SDS011;8062;53.882;10.642;2023-06-22T03:15:14;0.50;;;0.50;;
15925;SDS011;8062;53.882;10.642;2023-06-22T03:16:34;0.50;;;0.50;;
15925;SDS011;8062;53.882;10.642;2023-06-22T03:17:54;0.43;;;0.43;;
15925;SDS011;8062;53.882;10.642;2023-06-22T03:19:15;0.40;;;0.40;;
15925;SDS011;8062;53.882;10.642;2023-06-22T03:20:35;0.43;;;0.43;;
15925;SDS011;8062;53.882;10.642;2023-06-22T03:21:55;0.53;;;0.53;;
15925;SDS011;8062;53.882;10.642;2023-06-22T03:23:15;0.43;;;0.43;;
15925;SDS011;8062;53.882;10.642;2023-06-22T03:24:34;0.53;;;0.53;;
15925;SDS011;8062;53.882;10.642;2023-06-22T03:25:56;0.60;;;0.60;;
15925;SDS011;8062;53.882;10.642;2023-06-22T03:27:15;0.43;;;0.43;;
15925;SDS011;8062;53.882;10.642;2023-06-22T03:28:35;0.63;;;0.63;;
15925;SDS011;8062;53.882;10.642;2023-06-22T03:29:56;0.50;;;0.50;;
15925;SDS011;8062;53.882;10.642;2023-06-22T03:31:16;0.57;;;0.57;;
15925;SDS011;8062;53.882;10.642;2023-06-22T03:32:40;0.43;;;0.43;;
15925;SDS011;8062;53.882;10.642;2023-06-22T03:33:59;0.60;;;0.60;;
15925;SDS011;8062;53.882;10.642;2023-06-22T03:35:19;0.37;;;0.37;;
15925;SDS011;8062;53.882;10.642;2023-06-22T03:36:40;0.47;;;0.47;;
15925;SDS011;8062;53.882;10.642;2023-06-22T03:37:59;0.50;;;0.50;;
15925;SDS011;8062;53.882;10.642;2023-06-22T03:39:19;0.47;;;0.47;;
15925;SDS011;8062;53.882;10.642;2023-06-22T03:40:39;0.47;;;0.47;;
15925;SDS011;8062;53.882;10.642;2023-06-22T03:41:58;0.43;;;0.43;;
15925;SDS011;8062;53.882;10.642;2023-06-22T03:43:18;0.57;;;0.57;;
15925;SDS011;8062;53.882;10.642;2023-06-22T03:44:37;0.60;;;0.60;;
15925;SDS011;8062;53.882;10.642;2023-06-22T03:45:58;0.67;;;0.67;;
15925;SDS011;8062;53.882;10.642;2023-06-22T03:47:18;0.63;;;0.63;;
15925;SDS011;8062;53.882;10.642;2023-06-22T03:48:38;0.60;;;0.60;;
15925;SDS011;8062;53.882;10.642;2023-06-22T03:49:58;0.47;;;0.47;;
15925;SDS011;8062;53.882;10.642;2023-06-22T03:51:17;0.47;;;0.47;;
15925;SDS011;8062;53.882;10.642;2023-06-22T03:52:37;0.50;;;0.50;;
15925;SDS011;8062;53.882;10.642;2023-06-22T03:53:56;0.63;;;0.63;;
15925;SDS011;8062;53.882;10.642;2023-06-22T03:55:16;0.77;;;0.77;;
15925;SDS011;8062;53.882;10.642;2023-06-22T03:56:36;0.80;;;0.80;;
15925;SDS011;8062;53.882;10.642;2023-06-22T03:57:55;0.73;;;0.73;;
15925;SDS011;8062;53.882;10.642;2023-06-22T03:59:16;0.83;;;0.83;;
15925;SDS011;8062;53.882;10.642;2023-06-22T04:00:35;0.77;;;0.77;;
15925;SDS011;8062;53.882;10.642;2023-06-22T04:01:55;0.70;;;0.70;;
15925;SDS011;8062;53.882;10.642;2023-06-22T04:03:15;0.70;;;0.70;;
15925;SDS011;8062;53.882;10.642;2023-06-22T04:04:35;0.73;;;0.73;;
15925;SDS011;8062;53.882;10.642;2023-06-22T04:05:54;0.93;;;0.93;;
15925;SDS011;8062;53.882;10.642;2023-06-22T04:07:14;0.87;;;0.87;;
15925;SDS011;8062;53.882;10.642;2023-06-22T04:08:33;0.77;;;0.77;;
15925;SDS011;8062;53.882;10.642;2023-06-22T04:09:53;1.20;;;1.20;;
15925;SDS011;8062;53.882;10.642;2023-06-22T04:11:12;0.97;;;0.97;;
15925;SDS011;8062;53.882;10.642;2023-06-22T04:12:32;1.00;;;1.00;;
15925;SDS011;8062;53.882;10.642;2023-06-22T04:13:53;1.13;;;1.13;;
15925;SDS011;8062;53.882;10.642;2023-06-22T04:15:12;1.07;;;1.07;;
15925;SDS011;8062;53.882;10.642;2023-06-22T04:16:32;1.20;;;1.20;;
15925;SDS011;8062;53.882;10.642;2023-06-22T04:17:54;1.07;;;1.07;;
15925;SDS011;8062;53.882;10.642;2023-06-22T04:19:14;1.17;;;1.17;;
15925;SDS011;8062;53.882;10.642;2023-06-22T04:20:36;0.93;;;0.93;;
15925;SDS011;8062;53.882;10.642;2023-06-22T04:21:56;1.27;;;1.27;;
15925;SDS011;8062;53.882;10.642;2023-06-22T04:23:16;1.37;;;1.37;;
15925;SDS011;8062;53.882;10.642;2023-06-22T04:24:35;1.17;;;1.17;;
15925;SDS011;8062;53.882;10.642;2023-06-22T04:25:55;1.53;;;1.53;;
15925;SDS011;8062;53.882;10.642;2023-06-22T04:27:15;1.03;;;1.03;;
15925;SDS011;8062;53.882;10.642;2023-06-22T04:28:34;0.93;;;0.93;;
15925;SDS011;8062;53.882;10.642;2023-06-22T04:29:54;1.10;;;1.10;;
15925;SDS011;8062;53.882;10.642;2023-06-22T04:31:13;1.00;;;1.00;;
15925;SDS011;8062;53.882;10.642;2023-06-22T04:32:33;0.97;;;0.97;;
15925;SDS011;8062;53.882;10.642;2023-06-22T04:33:57;1.00;;;1.00;;
15925;SDS011;8062;53.882;10.642;2023-06-22T04:35:25;1.13;;;1.13;;
15925;SDS011;8062;53.882;10.642;2023-06-22T04:36:44;1.07;;;1.07;;
15925;SDS011;8062;53.882;10.642;2023-06-22T04:38:04;1.00;;;1.00;;
15925;SDS011;8062;53.882;10.642;2023-06-22T04:39:23;1.07;;;1.07;;
15925;SDS011;8062;53.882;10.642;2023-06-22T04:40:43;1.40;;;1.40;;
15925;SDS011;8062;53.882;10.642;2023-06-22T04:42:02;1.17;;;1.17;;
15925;SDS011;8062;53.882;10.642;2023-06-22T04:43:22;1.70;;;1.67;;
15925;SDS011;8062;53.882;10.642;2023-06-22T04:44:41;1.20;;;1.20;;
15925;SDS011;8062;53.882;10.642;2023-06-22T04:46:01;1.37;;;1.37;;
15925;SDS011;8062;53.882;10.642;2023-06-22T04:47:22;1.37;;;1.37;;
15925;SDS011;8062;53.882;10.642;2023-06-22T04:48:41;1.37;;;1.37;;
15925;SDS011;8062;53.882;10.642;2023-06-22T04:50:01;1.17;;;1.17;;
15925;SDS011;8062;53.882;10.642;2023-06-22T04:51:24;0.87;;;0.87;;
15925;SDS011;8062;53.882;10.642;2023-06-22T04:52:50;0.60;;;0.60;;
15925;SDS011;8062;53.882;10.642;2023-06-22T04:54:10;0.73;;;0.73;;
15925;SDS011;8062;53.882;10.642;2023-06-22T04:55:29;0.90;;;0.90;;
15925;SDS011;8062;53.882;10.642;2023-06-22T04:56:49;1.07;;;1.07;;
15925;SDS011;8062;53.882;10.642;2023-06-22T04:58:15;0.73;;;0.73;;
15925;SDS011;8062;53.882;10.642;2023-06-22T04:59:35;0.67;;;0.67;;
15925;SDS011;8062;53.882;10.642;2023-06-22T05:00:55;0.57;;;0.57;;
15925;SDS011;8062;53.882;10.642;2023-06-22T05:02:16;0.43;;;0.43;;
15925;SDS011;8062;53.882;10.642;2023-06-22T05:03:35;0.37;;;0.37;;
15925;SDS011;8062;53.882;10.642;2023-06-22T05:04:55;0.30;;;0.30;;
15925;SDS011;8062;53.882;10.642;2023-06-22T05:06:18;0.40;;;0.40;;
15925;SDS011;8062;53.882;10.642;2023-06-22T05:07:38;0.20;;;0.20;;
15925;SDS011;8062;53.882;10.642;2023-06-22T05:08:58;0.30;;;0.30;;
15925;SDS011;8062;53.882;10.642;2023-06-22T05:10:18;0.30;;;0.30;;
15925;SDS011;8062;53.882;10.642;2023-06-22T05:11:38;0.30;;;0.30;;
15925;SDS011;8062;53.882;10.642;2023-06-22T05:12:57;0.40;;;0.40;;
15925;SDS011;8062;53.882;10.642;2023-06-22T05:14:17;0.53;;;0.53;;
15925;SDS011;8062;53.882;10.642;2023-06-22T05:15:37;0.57;;;0.57;;
15925;SDS011;8062;53.882;10.642;2023-06-22T05:16:58;0.50;;;0.50;;
15925;SDS011;8062;53.882;10.642;2023-06-22T05:18:22;0.33;;;0.33;;
15925;SDS011;8062;53.882;10.642;2023-06-22T05:19:42;0.60;;;0.60;;
15925;SDS011;8062;53.882;10.642;2023-06-22T05:21:03;0.40;;;0.40;;
15925;SDS011;8062;53.882;10.642;2023-06-22T05:22:23;0.40;;;0.40;;
15925;SDS011;8062;53.882;10.642;2023-06-22T05:23:43;0.40;;;0.40;;
15925;SDS011;8062;53.882;10.642;2023-06-22T05:25:02;0.43;;;0.43;;
15925;SDS011;8062;53.882;10.642;2023-06-22T05:26:24;0.13;;;0.13;;
15925;SDS011;8062;53.882;10.642;2023-06-22T05:27:43;0.20;;;0.20;;
15925;SDS011;8062;53.882;10.642;2023-06-22T05:29:03;0.27;;;0.27;;
15925;SDS011;8062;53.882;10.642;2023-06-22T05:30:22;0.30;;;0.30;;
15925;SDS011;8062;53.882;10.642;2023-06-22T05:31:42;0.23;;;0.23;;
15925;SDS011;8062;53.882;10.642;2023-06-22T05:33:01;0.20;;;0.20;;
15925;SDS011;8062;53.882;10.642;2023-06-22T05:34:21;0.10;;;0.10;;
15925;SDS011;8062;53.882;10.642;2023-06-22T05:35:40;0.13;;;0.13;;
15925;SDS011;8062;53.882;10.642;2023-06-22T05:37:01;0.10;;;0.10;;
15925;SDS011;8062;53.882;10.642;2023-06-22T05:38:21;0.23;;;0.23;;
15925;SDS011;8062;53.882;10.642;2023-06-22T05:39:40;0.20;;;0.20;;
15925;SDS011;8062;53.882;10.642;2023-06-22T05:40:59;0.30;;;0.30;;
15925;SDS011;8062;53.882;10.642;2023-06-22T05:42:19;0.33;;;0.33;;
15925;SDS011;8062;53.882;10.642;2023-06-22T05:43:38;0.40;;;0.40;;
15925;SDS011;8062;53.882;10.642;2023-06-22T05:44:58;0.30;;;0.30;;
15925;SDS011;8062;53.882;10.642;2023-06-22T05:46:18;0.40;;;0.40;;
15925;SDS011;8062;53.882;10.642;2023-06-22T05:47:38;0.20;;;0.20;;
15925;SDS011;8062;53.882;10.642;2023-06-22T05:48:58;0.20;;;0.20;;
15925;SDS011;8062;53.882;10.642;2023-06-22T05:50:17;0.10;;;0.10;;
15925;SDS011;8062;53.882;10.642;2023-06-22T05:51:37;0.20;;;0.20;;
15925;SDS011;8062;53.882;10.642;2023-06-22T05:52:56;0.10;;;0.10;;
15925;SDS011;8062;53.882;10.642;2023-06-22T05:54:16;0.10;;;0.10;;
15925;SDS011;8062;53.882;10.642;2023-06-22T05:55:36;0.20;;;0.20;;
15925;SDS011;8062;53.882;10.642;2023-06-22T05:56:56;0.10;;;0.10;;
15925;SDS011;8062;53.882;10.642;2023-06-22T05:58:15;0.10;;;0.10;;
15925;SDS011;8062;53.882;10.642;2023-06-22T05:59:35;0.10;;;0.10;;
15925;SDS011;8062;53.882;10.642;2023-06-22T06:00:55;0.10;;;0.10;;
15925;SDS011;8062;53.882;10.642;2023-06-22T06:02:14;0.10;;;0.10;;
15925;SDS011;8062;53.882;10.642;2023-06-22T06:03:34;0.10;;;0.10;;
15925;SDS011;8062;53.882;10.642;2023-06-22T06:04:59;0.10;;;0.10;;
15925;SDS011;8062;53.882;10.642;2023-06-22T06:06:21;0.10;;;0.10;;
15925;SDS011;8062;53.882;10.642;2023-06-22T06:07:47;0.10;;;0.10;;
15925;SDS011;8062;53.882;10.642;2023-06-22T06:09:07;0.10;;;0.10;;
15925;SDS011;8062;53.882;10.642;2023-06-22T06:10:26;0.10;;;0.10;;
15925;SDS011;8062;53.882;10.642;2023-06-22T06:11:48;0.10;;;0.10;;
15925;SDS011;8062;53.882;10.642;2023-06-22T06:13:08;0.10;;;0.10;;
15925;SDS011;8062;53.882;10.642;2023-06-22T06:14:27;0.10;;;0.10;;
15925;SDS011;8062;53.882;10.642;2023-06-22T06:15:47;0.10;;;0.10;;
15925;SDS011;8062;53.882;10.642;2023-06-22T06:17:07;0.10;;;0.10;;
15925;SDS011;8062;53.882;10.642;2023-06-22T06:18:26;0.10;;;0.10;;
15925;SDS011;8062;53.882;10.642;2023-06-22T06:19:45;0.20;;;0.20;;
15925;SDS011;8062;53.882;10.642;2023-06-22T06:21:05;0.30;;;0.30;;
15925;SDS011;8062;53.882;10.642;2023-06-22T06:22:24;0.10;;;0.10;;
15925;SDS011;8062;53.882;10.642;2023-06-22T06:23:43;0.10;;;0.10;;
15925;SDS011;8062;53.882;10.642;2023-06-22T06:25:03;0.08;;;0.08;;
15925;SDS011;8062;53.882;10.642;2023-06-22T06:26:23;0.10;;;0.10;;
15925;SDS011;8062;53.882;10.642;2023-06-22T06:27:46;0.10;;;0.10;;
15925;SDS011;8062;53.882;10.642;2023-06-22T06:29:07;0.10;;;0.10;;
15925;SDS011;8062;53.882;10.642;2023-06-22T06:30:26;0.10;;;0.10;;
15925;SDS011;8062;53.882;10.642;2023-06-22T06:31:46;0.10;;;0.10;;
15925;SDS011;8062;53.882;10.642;2023-06-22T06:33:06;0.10;;;0.10;;
15925;SDS011;8062;53.882;10.642;2023-06-22T06:34:27;0.30;;;0.30;;
15925;SDS011;8062;53.882;10.642;2023-06-22T06:35:47;0.15;;;0.15;;
15925;SDS011;8062;53.882;10.642;2023-06-22T06:37:07;0.10;;;0.10;;
15925;SDS011;8062;53.882;10.642;2023-06-22T06:38:26;0.30;;;0.30;;
15925;SDS011;8062;53.882;10.642;2023-06-22T06:39:46;0.17;;;0.17;;
15925;SDS011;8062;53.882;10.642;2023-06-22T06:41:06;0.38;;;0.38;;
15925;SDS011;8062;53.882;10.642;2023-06-22T06:42:25;0.30;;;0.30;;
15925;SDS011;8062;53.882;10.642;2023-06-22T06:43:44;0.20;;;0.20;;
15925;SDS011;8062;53.882;10.642;2023-06-22T06:45:04;0.20;;;0.20;;
15925;SDS011;8062;53.882;10.642;2023-06-22T06:46:24;0.30;;;0.30;;
15925;SDS011;8062;53.882;10.642;2023-06-22T06:47:44;0.38;;;0.38;;
15925;SDS011;8062;53.882;10.642;2023-06-22T06:49:04;0.25;;;0.25;;
15925;SDS011;8062;53.882;10.642;2023-06-22T06:50:24;0.20;;;0.20;;
15925;SDS011;8062;53.882;10.642;2023-06-22T06:51:43;0.35;;;0.35;;
15925;SDS011;8062;53.882;10.642;2023-06-22T06:53:03;0.30;;;0.30;;
15925;SDS011;8062;53.882;10.642;2023-06-22T06:54:24;0.20;;;0.20;;
15925;SDS011;8062;53.882;10.642;2023-06-22T06:55:43;0.00;;;0.00;;
15925;SDS011;8062;53.882;10.642;2023-06-22T06:57:04;0.10;;;0.10;;
15925;SDS011;8062;53.882;10.642;2023-06-22T06:58:23;0.20;;;0.20;;
15925;SDS011;8062;53.882;10.642;2023-06-22T06:59:43;0.20;;;0.20;;
15925;SDS011;8062;53.882;10.642;2023-06-22T07:01:02;0.10;;;0.10;;
15925;SDS011;8062;53.882;10.642;2023-06-22T07:02:22;0.20;;;0.20;;
15925;SDS011;8062;53.882;10.642;2023-06-22T07:03:42;0.30;;;0.30;;
15925;SDS011;8062;53.882;10.642;2023-06-22T07:05:02;0.30;;;0.30;;
15925;SDS011;8062;53.882;10.642;2023-06-22T07:06:23;0.20;;;0.20;;
15925;SDS011;8062;53.882;10.642;2023-06-22T07:07:46;0.30;;;0.30;;
15925;SDS011;8062;53.882;10.642;2023-06-22T07:09:06;0.40;;;0.40;;
15925;SDS011;8062;53.882;10.642;2023-06-22T07:10:25;0.20;;;0.20;;
15925;SDS011;8062;53.882;10.642;2023-06-22T07:11:45;0.20;;;0.20;;
15925;SDS011;8062;53.882;10.642;2023-06-22T07:13:04;0.20;;;0.20;;
15925;SDS011;8062;53.882;10.642;2023-06-22T07:14:24;0.20;;;0.20;;
15925;SDS011;8062;53.882;10.642;2023-06-22T07:15:44;0.10;;;0.10;;
15925;SDS011;8062;53.882;10.642;2023-06-22T07:17:03;0.00;;;0.00;;
15925;SDS011;8062;53.882;10.642;2023-06-22T07:18:23;0.00;;;0.00;;
15925;SDS011;8062;53.882;10.642;2023-06-22T07:19:43;0.10;;;0.10;;
15925;SDS011;8062;53.882;10.642;2023-06-22T07:21:02;0.10;;;0.10;;
15925;SDS011;8062;53.882;10.642;2023-06-22T07:22:25;0.00;;;0.00;;
15925;SDS011;8062;53.882;10.642;2023-06-22T07:23:44;0.00;;;0.00;;
15925;SDS011;8062;53.882;10.642;2023-06-22T07:25:04;0.00;;;0.00;;
15925;SDS011;8062;53.882;10.642;2023-06-22T07:26:28;0.00;;;0.00;;
15925;SDS011;8062;53.882;10.642;2023-06-22T07:27:57;0.00;;;0.00;;
15925;SDS011;8062;53.882;10.642;2023-06-22T07:29:18;0.00;;;0.00;;
15925;SDS011;8062;53.882;10.642;2023-06-22T07:30:41;0.00;;;0.00;;
15925;SDS011;8062;53.882;10.642;2023-06-22T07:32:01;0.00;;;0.00;;
15925;SDS011;8062;53.882;10.642;2023-06-22T07:33:23;0.00;;;0.00;;
15925;SDS011;8062;53.882;10.642;2023-06-22T07:34:43;0.00;;;0.00;;
15925;SDS011;8062;53.882;10.642;2023-06-22T07:36:02;0.00;;;0.00;;
15925;SDS011;8062;53.882;10.642;2023-06-22T07:37:26;0.00;;;0.00;;
15925;SDS011;8062;53.882;10.642;2023-06-22T07:38:46;0.00;;;0.00;;
15925;SDS011;8062;53.882;10.642;2023-06-22T07:40:06;0.00;;;0.00;;
15925;SDS011;8062;53.882;10.642;2023-06-22T07:41:26;0.00;;;0.00;;
15925;SDS011;8062;53.882;10.642;2023-06-22T07:42:46;0.00;;;0.00;;
15925;SDS011;8062;53.882;10.642;2023-06-22T07:44:07;0.00;;;0.00;;
15925;SDS011;8062;53.882;10.642;2023-06-22T07:45:26;0.00;;;0.00;;
15925;SDS011;8062;53.882;10.642;2023-06-22T07:46:46;0.00;;;0.00;;
15925;SDS011;8062;53.882;10.642;2023-06-22T07:48:06;0.00;;;0.00;;
15925;SDS011;8062;53.882;10.642;2023-06-22T07:49:27;0.00;;;0.00;;
15925;SDS011;8062;53.882;10.642;2023-06-22T07:50:47;0.00;;;0.00;;
15925;SDS011;8062;53.882;10.642;2023-06-22T07:52:07;0.00;;;0.00;;
15925;SDS011;8062;53.882;10.642;2023-06-22T07:53:26;0.00;;;0.00;;
15925;SDS011;8062;53.882;10.642;2023-06-22T07:54:47;0.00;;;0.00;;
15925;SDS011;8062;53.882;10.642;2023-06-22T07:56:06;0.00;;;0.00;;
15925;SDS011;8062;53.882;10.642;2023-06-22T07:57:26;0.00;;;0.00;;
15925;SDS011;8062;53.882;10.642;2023-06-22T07:58:51;0.00;;;0.00;;
15925;SDS011;8062;53.882;10.642;2023-06-22T08:00:10;0.00;;;0.00;;
15925;SDS011;8062;53.882;10.642;2023-06-22T08:01:35;0.00;;;0.00;;
15925;SDS011;8062;53.882;10.642;2023-06-22T08:02:55;0.00;;;0.00;;
15925;SDS011;8062;53.882;10.642;2023-06-22T08:04:15;0.10;;;0.10;;
15925;SDS011;8062;53.882;10.642;2023-06-22T08:05:34;0.10;;;0.10;;
15925;SDS011;8062;53.882;10.642;2023-06-22T08:06:54;0.10;;;0.10;;
15925;SDS011;8062;53.882;10.642;2023-06-22T08:08:14;0.00;;;0.00;;
15925;SDS011;8062;53.882;10.642;2023-06-22T08:09:33;0.10;;;0.10;;
15925;SDS011;8062;53.882;10.642;2023-06-22T08:10:53;0.00;;;0.00;;
15925;SDS011;8062;53.882;10.642;2023-06-22T08:12:13;0.00;;;0.00;;
15925;SDS011;8062;53.882;10.642;2023-06-22T08:13:33;0.00;;;0.00;;
15925;SDS011;8062;53.882;10.642;2023-06-22T08:14:52;0.00;;;0.00;;